Observations for BOURNEMOUTH AIRPORT, United Kingdom (EGHH)

EGHH 200620Z VRB01KT CAVOK 08/07 Q1030  
EGHH 200550Z 31004KT CAVOK 05/04 Q1030  
EGHH 200520Z VRB03KT CAVOK 05/03 Q1030  
EGHH 200450Z 33004KT CAVOK 05/03 Q1030  
EGHH 192250Z 35001KT CAVOK 09/06 Q1030  
EGHH 192220Z 35001KT CAVOK 10/06 Q1030  
EGHH 192150Z 35003KT CAVOK 11/06 Q1030  
EGHH 192120Z 35003KT CAVOK 12/06 Q1029  
EGHH 192050Z 06002KT CAVOK 13/06 Q1029  
EGHH 192020Z 06004KT CAVOK 14/06 Q1029  
EGHH 191950Z VRB01KT CAVOK 16/06 Q1029  
EGHH 191920Z VRB01KT CAVOK 17/06 Q1028  
EGHH 191850Z VRB01KT CAVOK 19/06 Q1028  
EGHH 191820Z 18004KT CAVOK 20/06 Q1028  
EGHH 191750Z 19004KT CAVOK 21/06 Q1027  
EGHH 191720Z 17004KT 120V190 CAVOK 23/06 Q1027  
EGHH 191650Z 17004KT CAVOK 23/06 Q1027  
EGHH 191620Z 16007KT CAVOK 23/06 Q1027  
EGHH 191550Z 17008KT 130V200 CAVOK 23/06 Q1027  
EGHH 191520Z 18009KT 130V210 CAVOK 23/05 Q1027  
EGHH 191450Z 14009KT 060V170 CAVOK 24/05 Q1027  
EGHH 191420Z 11007KT 040V170 CAVOK 24/05 Q1027  
EGHH 191350Z 15010KT 110V180 CAVOK 24/06 Q1027  
EGHH 191320Z 16008KT 110V190 CAVOK 23/06 Q1027  
EGHH 191250Z 12004KT 030V170 CAVOK 23/05 Q1027  
EGHH 191220Z 07008KT 020V150 CAVOK 23/06 Q1027  
EGHH 191150Z 06007KT 020V100 CAVOK 22/06 Q1027  
EGHH 191120Z 06007KT 010V090 CAVOK 23/08 Q1027  
EGHH 191050Z 06008KT 010V100 CAVOK 21/08 Q1027  
EGHH 191020Z 05008KT 010V090 CAVOK 20/07 Q1027  
EGHH 190950Z 04009KT 020V090 CAVOK 19/08 Q1027  
EGHH 190920Z 04008KT 360V060 CAVOK 18/08 Q1027  
EGHH 190850Z 03007KT CAVOK 17/08 Q1027  
EGHH 190820Z 03007KT CAVOK 16/08 Q1027  
EGHH 190750Z 03006KT CAVOK 15/08 Q1026  
EGHH 190720Z 01006KT CAVOK 13/07 Q1026  
EGHH 190650Z 01005KT CAVOK 12/07 Q1026  
EGHH 190620Z 01004KT CAVOK 11/07 Q1026  
EGHH 190550Z 01005KT CAVOK 10/06 Q1026